Time;durP1;ratioP1;P1;durP2;ratioP2;P2;SDS_P1;SDS_P2;PMS_P1;PMS_P2;Temp;Humidity;BMP_temperature;BMP_pressure;BME280_temperature;BME280_humidity;BME280_pressure;Samples;Min_cycle;Max_cycle;Signal;HPM_P1;HPM_P2
2023/05/25 00:01:20;;;;;;;18.48;9.73;;;;;;;7.48;100.00;101792.88;4902966;29;20044;-79
2023/05/25 00:03:48;;;;;;;18.80;8.80;;;;;;;7.47;100.00;101802.44;4899761;29;20146;-81
2023/05/25 00:06:14;;;;;;;22.85;9.80;;;;;;;7.43;100.00;101796.28;4909840;29;20046;-81
2023/05/25 00:08:41;;;;;;;11.85;8.35;;;;;;;7.44;100.00;101798.03;4914087;29;20198;-92
2023/05/25 00:11:07;;;;;;;16.35;10.43;;;;;;;7.47;100.00;101798.94;4916977;29;20051;-80
2023/05/25 00:13:34;;;;;;;19.05;10.32;;;;;;;7.50;100.00;101802.50;4897311;29;20490;-82
2023/05/25 00:16:01;;;;;;;19.73;9.85;;;;;;;7.52;100.00;101802.53;4913430;29;20043;-88
2023/05/25 00:18:28;;;;;;;17.98;10.15;;;;;;;7.53;100.00;101799.94;4909334;29;20167;-80
2023/05/25 00:20:54;;;;;;;16.98;9.13;;;;;;;7.50;100.00;101805.09;4891342;29;20487;-79
2023/05/25 00:23:21;;;;;;;17.65;10.15;;;;;;;7.44;100.00;101799.75;4913865;29;20064;-79
2023/05/25 00:25:47;;;;;;;27.80;11.65;;;;;;;7.38;100.00;101792.69;4905067;29;20039;-80
2023/05/25 00:28:14;;;;;;;20.90;11.32;;;;;;;7.37;100.00;101801.34;4899976;29;20048;-79
2023/05/25 00:30:41;;;;;;;24.17;12.02;;;;;;;7.34;100.00;101800.38;4889232;29;20070;-80
2023/05/25 00:33:09;;;;;;;21.95;11.77;;;;;;;7.28;100.00;101802.00;4879813;29;20062;-81
2023/05/25 00:35:35;;;;;;;19.15;11.85;;;;;;;7.23;100.00;101802.75;4909337;29;20649;-84
2023/05/25 00:38:02;;;;;;;23.85;13.10;;;;;;;7.22;100.00;101798.38;4895297;29;20044;-86
2023/05/25 00:40:29;;;;;;;20.95;13.15;;;;;;;7.17;100.00;101798.28;4918518;29;20437;-84
2023/05/25 00:42:57;;;;;;;26.42;12.90;;;;;;;7.13;100.00;101804.22;4899676;29;20124;-80
2023/05/25 00:45:23;;;;;;;26.65;13.13;;;;;;;7.09;100.00;101802.41;4912648;29;20202;-80
2023/05/25 00:47:54;;;;;;;25.20;13.80;;;;;;;7.05;100.00;101808.38;4909471;29;21442;-79
2023/05/25 00:50:38;;;;;;;25.42;14.50;;;;;;;7.04;100.00;101801.41;4938522;29;20036;-89
2023/05/25 00:53:06;;;;;;;23.92;14.00;;;;;;;6.98;100.00;101799.56;4913332;29;20127;-82
2023/05/25 00:55:38;;;;;;;19.65;13.02;;;;;;;6.94;100.00;101802.94;4904756;29;20131;-81
2023/05/25 00:58:05;;;;;;;26.88;12.95;;;;;;;6.89;100.00;101799.34;4919932;29;20041;-83
2023/05/25 01:00:34;;;;;;;25.80;14.50;;;;;;;6.86;100.00;101801.88;4919515;29;20051;-92
2023/05/25 01:03:10;;;;;;;34.58;15.60;;;;;;;6.83;100.00;101805.28;4915382;29;20046;-83
2023/05/25 01:05:38;;;;;;;29.98;15.77;;;;;;;6.81;100.00;101800.88;4932306;29;20075;-80
2023/05/25 01:08:06;;;;;;;31.85;16.08;;;;;;;6.81;100.00;101801.75;4910931;29;20044;-80
2023/05/25 01:10:33;;;;;;;26.85;13.95;;;;;;;6.78;100.00;101794.75;4910143;29;20571;-80
2023/05/25 01:13:02;;;;;;;29.85;15.48;;;;;;;6.75;100.00;101804.19;4907015;29;20131;-85
2023/05/25 01:15:30;;;;;;;28.13;15.20;;;;;;;6.68;100.00;101802.28;4912371;29;20040;-81
2023/05/25 01:17:58;;;;;;;24.38;14.23;;;;;;;6.63;100.00;101796.94;4904967;29;20051;-80
2023/05/25 01:20:28;;;;;;;30.33;15.00;;;;;;;6.58;100.00;101803.75;4907325;29;20054;-81
2023/05/25 01:23:00;;;;;;;37.50;15.80;;;;;;;6.54;100.00;101802.78;4885282;29;20479;-82
2023/05/25 01:26:01;;;;;;;31.52;16.42;;;;;;;6.58;100.00;101799.44;4899528;29;20071;-80
2023/05/25 01:28:39;;;;;;;29.08;16.50;;;;;;;6.53;100.00;101798.44;4896800;29;20069;-80
2023/05/25 01:31:07;;;;;;;23.83;14.75;;;;;;;6.53;100.00;101797.53;4917673;29;20052;-91
2023/05/25 01:33:36;;;;;;;32.63;13.52;;;;;;;6.52;100.00;101794.06;4893433;29;20138;-80
2023/05/25 01:36:03;;;;;;;29.23;14.82;;;;;;;6.48;100.00;101791.34;4909665;29;20052;-83
2023/05/25 01:38:29;;;;;;;24.52;13.45;;;;;;;6.46;100.00;101799.97;4890771;29;20063;-82
2023/05/25 01:40:56;;;;;;;31.67;15.52;;;;;;;6.42;100.00;101800.75;4916999;29;20051;-85
2023/05/25 01:43:23;;;;;;;24.42;14.38;;;;;;;6.41;100.00;101796.41;4911916;29;20064;-82
2023/05/25 01:45:56;;;;;;;29.38;16.38;;;;;;;6.42;100.00;101790.34;4908019;29;20130;-80
2023/05/25 01:48:45;;;;;;;24.73;15.52;;;;;;;6.42;100.00;101787.72;4912043;29;20096;-83
2023/05/25 01:51:24;;;;;;;30.17;14.90;;;;;;;6.41;100.00;101783.41;4912116;29;20044;-81
2023/05/25 01:54:00;;;;;;;30.15;15.50;;;;;;;6.43;100.00;101792.09;4896415;29;20106;-79
2023/05/25 01:56:30;;;;;;;31.13;15.75;;;;;;;6.39;100.00;101795.47;4914578;29;20696;-82
2023/05/25 01:58:58;;;;;;;29.60;14.57;;;;;;;6.39;100.00;101800.66;4914588;29;20059;-79
2023/05/25 02:01:27;;;;;;;27.65;13.85;;;;;;;6.37;100.00;101798.88;4898103;29;20115;-84
2023/05/25 02:03:53;;;;;;;24.58;13.10;;;;;;;6.32;100.00;101796.13;4900815;29;20119;-83
2023/05/25 02:06:20;;;;;;;23.33;14.02;;;;;;;6.29;100.00;101804.72;4919999;29;20052;-81
2023/05/25 02:08:47;;;;;;;29.92;15.95;;;;;;;6.38;100.00;101811.03;4905325;29;20048;-80
2023/05/25 02:11:16;;;;;;;28.65;14.93;;;;;;;6.53;100.00;101806.25;4908936;29;20049;-81
2023/05/25 02:13:43;;;;;;;28.15;14.73;;;;;;;6.67;100.00;101795.31;4913402;29;20058;-79
2023/05/25 02:16:09;;;;;;;21.40;13.93;;;;;;;6.68;100.00;101787.53;4913974;29;20123;-79
2023/05/25 02:18:36;;;;;;;23.10;14.13;;;;;;;6.60;100.00;101784.72;4913474;29;20071;-83
2023/05/25 02:21:03;;;;;;;28.77;14.73;;;;;;;6.52;100.00;101793.19;4915748;29;20525;-80
2023/05/25 02:23:30;;;;;;;25.77;13.90;;;;;;;6.45;100.00;101792.13;4906250;29;20036;-79
2023/05/25 02:25:56;;;;;;;30.25;14.93;;;;;;;6.51;100.00;101796.66;4908554;29;20080;-85
2023/05/25 02:28:23;;;;;;;26.67;14.25;;;;;;;6.65;100.00;101796.97;4911091;29;20108;-87
2023/05/25 02:30:49;;;;;;;22.35;12.77;;;;;;;6.82;100.00;101803.50;4914712;29;20051;-80
2023/05/25 02:33:17;;;;;;;24.08;12.90;;;;;;;6.96;100.00;101798.63;4906599;29;20044;-80
2023/05/25 02:35:44;;;;;;;21.42;13.23;;;;;;;7.08;100.00;101795.47;4896850;29;20111;-79
2023/05/25 02:38:10;;;;;;;21.90;11.73;;;;;;;7.16;100.00;101800.81;4916073;29;20052;-81
2023/05/25 02:40:37;;;;;;;19.08;12.68;;;;;;;7.24;100.00;101805.38;4911509;29;20068;-84
2023/05/25 02:43:03;;;;;;;22.88;12.35;;;;;;;7.34;100.00;101803.88;4902178;29;20079;-82
2023/05/25 02:45:30;;;;;;;24.02;12.52;;;;;;;7.46;100.00;101808.47;4908333;29;20045;-79
2023/05/25 02:47:56;;;;;;;24.02;11.40;;;;;;;7.51;100.00;101798.16;4905193;29;20040;-79
2023/05/25 02:50:23;;;;;;;21.70;11.45;;;;;;;7.54;100.00;101804.31;4910382;29;20071;-81
2023/05/25 02:52:49;;;;;;;22.95;11.82;;;;;;;7.56;100.00;101806.94;4906438;29;20063;-81
2023/05/25 02:55:17;;;;;;;23.35;10.40;;;;;;;7.60;100.00;101807.06;4913913;29;20052;-83
2023/05/25 02:57:44;;;;;;;23.70;11.38;;;;;;;7.67;100.00;101808.06;4917393;29;20044;-82
2023/05/25 03:00:12;;;;;;;17.45;11.38;;;;;;;7.73;100.00;101807.31;4911478;29;20074;-79
2023/05/25 03:02:38;;;;;;;20.50;10.77;;;;;;;7.77;100.00;101809.16;4912463;29;20479;-85
2023/05/25 03:05:06;;;;;;;25.25;13.13;;;;;;;7.78;100.00;101810.91;4900825;29;20139;-83
2023/05/25 03:07:32;;;;;;;19.10;11.32;;;;;;;7.79;100.00;101815.28;4910625;29;20181;-82
2023/05/25 03:09:59;;;;;;;22.77;12.23;;;;;;;7.78;100.00;101822.22;4928513;29;20055;-80
2023/05/25 03:12:25;;;;;;;23.02;12.18;;;;;;;7.76;100.00;101813.47;4908493;29;20048;-79
2023/05/25 03:14:52;;;;;;;23.35;11.35;;;;;;;7.77;100.00;101816.97;4911180;29;20053;-79
2023/05/25 03:17:18;;;;;;;19.65;13.23;;;;;;;7.76;100.00;101816.09;4907895;29;20048;-90
2023/05/25 03:19:45;;;;;;;21.08;11.82;;;;;;;7.71;100.00;101819.44;4914378;29;20044;-79
2023/05/25 03:22:12;;;;;;;17.17;11.10;;;;;;;7.65;100.00;101817.56;4911339;29;20064;-86
2023/05/25 03:24:40;;;;;;;20.23;12.38;;;;;;;7.62;100.00;101820.13;4912579;29;20063;-83
2023/05/25 03:27:07;;;;;;;26.75;13.23;;;;;;;7.60;100.00;101819.19;4911349;29;20058;-80
2023/05/25 03:29:34;;;;;;;22.92;13.45;;;;;;;7.60;100.00;101824.41;4915081;29;20555;-79
2023/05/25 03:32:00;;;;;;;19.63;12.88;;;;;;;7.60;100.00;101821.78;4909739;29;20108;-82
2023/05/25 03:34:27;;;;;;;22.73;12.48;;;;;;;7.58;100.00;101818.28;4905827;29;20048;-81
2023/05/25 03:36:54;;;;;;;26.38;13.35;;;;;;;7.63;100.00;101821.88;4908954;29;20048;-84
2023/05/25 03:39:21;;;;;;;25.70;12.25;;;;;;;7.68;100.00;101832.38;4913561;29;20046;-84
2023/05/25 03:41:48;;;;;;;21.10;12.57;;;;;;;7.73;100.00;101834.28;4906863;29;20107;-87
2023/05/25 03:44:15;;;;;;;20.25;12.07;;;;;;;7.80;100.00;101837.03;4910130;29;20122;-80
2023/05/25 03:46:41;;;;;;;26.65;14.18;;;;;;;7.86;100.00;101839.75;4899236;29;20161;-80
2023/05/25 03:49:12;;;;;;;21.15;11.93;;;;;;;7.90;100.00;101832.03;4915266;29;20048;-83
2023/05/25 03:51:40;;;;;;;22.98;12.48;;;;;;;7.94;100.00;101835.59;4908973;29;20047;-82
2023/05/25 03:54:07;;;;;;;25.65;13.07;;;;;;;7.97;100.00;101840.84;4890156;29;20036;-82
2023/05/25 03:56:33;;;;;;;19.33;11.63;;;;;;;7.99;100.00;101831.34;4907982;29;20044;-80
2023/05/25 03:59:00;;;;;;;23.83;14.35;;;;;;;8.05;100.00;101843.63;4910708;29;20672;-78
2023/05/25 04:01:28;;;;;;;19.88;13.45;;;;;;;8.08;100.00;101844.56;4897581;29;20051;-84
2023/05/25 04:03:58;;;;;;;28.38;13.50;;;;;;;8.14;100.00;101842.94;4904373;29;20056;-80
2023/05/25 04:06:25;;;;;;;19.90;12.52;;;;;;;8.16;100.00;101847.34;4906099;29;20119;-86
2023/05/25 04:08:52;;;;;;;25.15;12.07;;;;;;;8.21;100.00;101853.53;4910503;29;20051;-81
2023/05/25 04:11:19;;;;;;;20.75;12.25;;;;;;;8.26;100.00;101856.22;4908403;29;20413;-88
2023/05/25 04:13:46;;;;;;;23.50;13.38;;;;;;;8.28;100.00;101863.22;4907912;29;20095;-82
2023/05/25 04:16:13;;;;;;;25.90;13.55;;;;;;;8.34;100.00;101856.38;4901595;29;20522;-86
2023/05/25 04:18:39;;;;;;;19.77;12.95;;;;;;;8.39;100.00;101862.56;4921093;29;20055;-81
2023/05/25 04:21:06;;;;;;;22.88;13.57;;;;;;;8.42;100.00;101855.66;4910334;29;20051;-81
2023/05/25 04:23:33;;;;;;;21.67;12.63;;;;;;;8.49;100.00;101859.31;4918245;29;20044;-82
2023/05/25 04:26:01;;;;;;;18.80;12.00;;;;;;;8.57;100.00;101857.72;4912657;29;20495;-80
2023/05/25 04:28:27;;;;;;;24.55;14.57;;;;;;;8.63;100.00;101856.97;4910776;29;20506;-79
2023/05/25 04:30:55;;;;;;;24.30;14.27;;;;;;;8.64;100.00;101857.84;4917393;29;20075;-80
2023/05/25 04:33:23;;;;;;;26.42;14.02;;;;;;;8.67;100.00;101858.78;4917050;29;20049;-80
2023/05/25 04:35:50;;;;;;;20.08;13.48;;;;;;;8.71;100.00;101868.41;4918136;29;20047;-79
2023/05/25 04:38:17;;;;;;;16.92;11.93;;;;;;;8.72;100.00;101870.19;4904304;29;20041;-80
2023/05/25 04:40:45;;;;;;;27.52;13.57;;;;;;;8.79;100.00;101865.94;4922168;29;20047;-83
2023/05/25 04:43:12;;;;;;;21.45;13.23;;;;;;;8.82;100.00;101873.81;4906965;29;20122;-80
2023/05/25 04:45:39;;;;;;;18.55;12.63;;;;;;;8.86;100.00;101866.94;4914111;29;20054;-81
2023/05/25 04:48:06;;;;;;;18.67;12.93;;;;;;;8.90;100.00;101872.25;4918010;29;20040;-90
2023/05/25 04:50:32;;;;;;;25.25;13.32;;;;;;;8.97;100.00;101878.47;4899530;29;20044;-80
2023/05/25 04:52:59;;;;;;;21.30;13.32;;;;;;;9.01;100.00;101875.03;4918430;29;20048;-82
2023/05/25 04:55:25;;;;;;;25.60;12.88;;;;;;;9.01;100.00;101866.31;4894478;29;20056;-84
2023/05/25 04:57:53;;;;;;;26.00;14.57;;;;;;;9.05;100.00;101884.69;4919428;29;20048;-83
2023/05/25 05:00:20;;;;;;;24.17;14.68;;;;;;;9.13;100.00;101874.38;4917375;29;20488;-79
2023/05/25 05:02:47;;;;;;;22.40;13.13;;;;;;;9.18;100.00;101884.91;4905046;29;20052;-81
2023/05/25 05:05:14;;;;;;;22.25;12.82;;;;;;;9.24;100.00;101879.75;4918403;29;20126;-80
2023/05/25 05:07:40;;;;;;;21.88;14.00;;;;;;;9.27;100.00;101882.44;4916873;29;20059;-79
2023/05/25 05:10:07;;;;;;;24.13;13.00;;;;;;;9.30;100.00;101886.84;4915121;29;20127;-86
2023/05/25 05:12:34;;;;;;;24.17;13.73;;;;;;;9.35;100.00;101887.78;4898119;29;20048;-79
2023/05/25 05:15:00;;;;;;;24.10;13.55;;;;;;;9.33;100.00;101885.13;4910359;29;20048;-80
2023/05/25 05:17:29;;;;;;;22.83;13.65;;;;;;;9.45;100.00;101884.44;4914908;29;20043;-80
2023/05/25 05:19:55;;;;;;;26.17;13.30;;;;;;;9.53;100.00;101898.53;4901899;29;20036;-79
2023/05/25 05:22:22;;;;;;;22.83;15.13;;;;;;;9.52;100.00;101894.16;4911518;29;20061;-78
2023/05/25 05:24:49;;;;;;;24.70;14.27;;;;;;;9.50;100.00;101890.63;4902002;29;20080;-79
2023/05/25 05:27:17;;;;;;;20.48;12.88;;;;;;;9.56;100.00;101900.31;4892142;29;20554;-80
2023/05/25 05:29:43;;;;;;;21.08;13.25;;;;;;;9.59;100.00;101905.56;4895737;29;20075;-83
2023/05/25 05:32:11;;;;;;;21.02;12.75;;;;;;;9.62;100.00;101909.97;4922486;29;20052;-79
2023/05/25 05:34:38;;;;;;;20.00;12.88;;;;;;;9.54;100.00;101915.97;4910194;29;20076;-83
2023/05/25 05:37:04;;;;;;;22.25;14.00;;;;;;;9.48;100.00;101920.19;4926112;29;20048;-81
2023/05/25 05:39:31;;;;;;;21.42;13.52;;;;;;;9.46;100.00;101914.97;4917540;29;20046;-79
2023/05/25 05:41:58;;;;;;;26.45;14.93;;;;;;;9.51;100.00;101920.28;4925610;29;20091;-85
2023/05/25 05:44:24;;;;;;;22.80;14.50;;;;;;;9.54;100.00;101925.53;4912674;29;20067;-87
2023/05/25 05:46:51;;;;;;;23.77;14.55;;;;;;;9.59;100.00;101922.16;4924684;29;20054;-87
2023/05/25 05:49:17;;;;;;;21.20;14.15;;;;;;;9.60;100.00;101921.28;4922261;29;20100;-79
2023/05/25 05:51:44;;;;;;;24.65;14.63;;;;;;;9.64;100.00;101935.28;4929390;29;20047;-79
2023/05/25 05:54:10;;;;;;;24.38;14.63;;;;;;;9.68;100.00;101944.06;4899715;29;20083;-81
2023/05/25 05:56:37;;;;;;;21.05;13.45;;;;;;;9.64;100.00;101943.13;4924175;29;20055;-83
2023/05/25 05:59:03;;;;;;;20.67;15.20;;;;;;;9.68;100.00;101938.84;4914449;29;20074;-88
2023/05/25 06:01:30;;;;;;;19.98;13.35;;;;;;;9.68;100.00;101949.28;4918078;29;20075;-79
2023/05/25 06:03:56;;;;;;;23.13;13.10;;;;;;;9.66;100.00;101949.28;4919284;29;20150;-84
2023/05/25 06:06:23;;;;;;;21.83;13.55;;;;;;;9.56;100.00;101947.38;4917617;29;20597;-80
2023/05/25 06:08:50;;;;;;;21.52;12.85;;;;;;;9.56;100.00;101949.97;4916931;29;20047;-85
2023/05/25 06:11:16;;;;;;;20.27;13.00;;;;;;;9.51;100.00;101955.13;4908880;29;20056;-87
2023/05/25 06:13:43;;;;;;;18.65;12.43;;;;;;;9.55;100.00;101966.50;4912226;29;20040;-79
2023/05/25 06:16:11;;;;;;;19.40;12.02;;;;;;;9.61;100.00;101958.78;4896492;29;20058;-79
2023/05/25 06:18:37;;;;;;;17.35;11.70;;;;;;;9.65;100.00;101971.03;4926456;29;20040;-80
2023/05/25 06:21:04;;;;;;;20.45;12.10;;;;;;;9.72;100.00;101961.56;4933028;29;20079;-80
2023/05/25 06:23:31;;;;;;;20.92;12.57;;;;;;;9.73;100.00;101964.19;4902598;29;20487;-80
2023/05/25 06:25:57;;;;;;;20.85;12.10;;;;;;;9.77;100.00;101970.34;4889825;29;20044;-80
2023/05/25 06:28:24;;;;;;;18.08;12.02;;;;;;;9.82;100.00;101970.44;4927393;29;20052;-79
2023/05/25 06:30:50;;;;;;;17.45;11.25;;;;;;;9.81;100.00;101973.91;4907026;29;20134;-81
2023/05/25 06:33:17;;;;;;;26.65;16.30;;;;;;;9.77;100.00;101976.44;4911648;29;20083;-80
2023/05/25 06:35:44;;;;;;;25.45;15.55;;;;;;;9.74;100.00;101971.19;4911964;29;20087;-79
2023/05/25 06:38:11;;;;;;;25.02;14.77;;;;;;;9.74;100.00;101972.94;4902259;29;20071;-81
2023/05/25 06:40:38;;;;;;;19.27;12.70;;;;;;;9.86;100.00;101974.84;4914889;29;20111;-79
2023/05/25 06:43:04;;;;;;;22.17;14.18;;;;;;;10.07;100.00;101976.91;4920152;29;20078;-80
2023/05/25 06:45:31;;;;;;;23.75;15.95;;;;;;;10.23;100.00;101973.66;4906464;29;20049;-85
2023/05/25 06:47:57;;;;;;;23.90;15.35;;;;;;;10.42;100.00;101969.56;4913505;29;20398;-84
2023/05/25 06:50:24;;;;;;;29.98;16.23;;;;;;;10.56;100.00;101974.09;4918937;29;20049;-80
2023/05/25 06:52:51;;;;;;;30.15;18.08;;;;;;;10.68;100.00;101971.63;4919752;29;20048;-82
2023/05/25 06:55:18;;;;;;;29.52;14.98;;;;;;;10.67;100.00;101971.59;4913836;29;20062;-79
2023/05/25 06:57:44;;;;;;;21.40;12.60;;;;;;;10.62;100.00;101975.91;4916815;29;20388;-81
2023/05/25 07:00:12;;;;;;;27.10;13.32;;;;;;;10.49;100.00;101985.34;4923656;29;20132;-80
2023/05/25 07:02:39;;;;;;;16.65;10.60;;;;;;;10.51;100.00;101981.88;4915501;29;20048;-82
2023/05/25 07:05:06;;;;;;;21.67;11.05;;;;;;;10.62;100.00;101986.38;4922270;29;20047;-87
2023/05/25 07:07:33;;;;;;;18.00;11.02;;;;;;;10.71;100.00;101983.88;4897334;29;20060;-81
2023/05/25 07:10:01;;;;;;;17.90;10.23;;;;;;;10.89;100.00;101989.31;4920375;29;20040;-82
2023/05/25 07:12:27;;;;;;;15.45;10.15;;;;;;;11.08;100.00;101984.25;4904436;29;20086;-81
2023/05/25 07:14:54;;;;;;;21.05;10.30;;;;;;;11.20;100.00;101981.78;4913358;29;20060;-84
2023/05/25 07:17:20;;;;;;;16.05;11.10;;;;;;;11.28;98.20;101988.81;4912493;29;20581;-80
2023/05/25 07:19:48;;;;;;;21.60;9.95;;;;;;;11.28;98.71;101992.34;4895872;29;20537;-82
2023/05/25 07:22:17;;;;;;;21.02;10.85;;;;;;;11.21;98.47;101991.41;4917356;29;20076;-82
2023/05/25 07:24:46;;;;;;;18.33;10.52;;;;;;;11.36;98.56;101995.91;4914355;29;20055;-80
2023/05/25 07:27:12;;;;;;;18.67;9.80;;;;;;;11.42;97.17;101985.50;4921906;29;20055;-84
2023/05/25 07:29:40;;;;;;;24.30;11.77;;;;;;;11.41;97.16;101982.84;4918466;29;20051;-82
2023/05/25 07:32:07;;;;;;;16.40;10.30;;;;;;;11.41;98.10;101978.47;4917738;29;20096;-82
2023/05/25 07:34:34;;;;;;;13.82;9.27;;;;;;;11.52;96.68;101986.44;4915586;29;20367;-80
2023/05/25 07:37:01;;;;;;;19.00;9.52;;;;;;;11.46;96.41;101994.28;4913137;29;20055;-81
2023/05/25 07:39:27;;;;;;;15.52;8.32;;;;;;;11.51;96.99;101987.31;4906704;29;20103;-81
2023/05/25 07:41:54;;;;;;;14.20;8.93;;;;;;;11.56;96.81;101987.34;4913100;29;20044;-84
2023/05/25 07:44:20;;;;;;;14.93;9.52;;;;;;;11.71;97.07;101991.84;4887038;29;20174;-82
2023/05/25 07:46:47;;;;;;;16.52;9.68;;;;;;;11.90;95.34;101995.47;4902911;29;20047;-79
2023/05/25 07:49:16;;;;;;;16.70;8.65;;;;;;;12.03;94.26;101994.75;4921302;29;20123;-80
2023/05/25 07:51:44;;;;;;;16.70;9.48;;;;;;;12.19;94.33;101998.34;4914777;29;20043;-80
2023/05/25 07:54:13;;;;;;;17.20;9.02;;;;;;;12.33;93.38;101998.41;4914569;29;20076;-80
2023/05/25 07:56:45;;;;;;;12.70;7.55;;;;;;;12.56;93.05;101987.13;4913670;29;20271;-88
2023/05/25 07:59:12;;;;;;;19.40;9.70;;;;;;;12.68;90.23;101991.56;4897349;29;20075;-80
2023/05/25 08:01:38;;;;;;;14.85;7.85;;;;;;;12.76;90.38;101992.44;4907847;29;20036;-81
2023/05/25 08:04:05;;;;;;;14.43;7.97;;;;;;;12.89;90.07;101996.91;4918984;29;20040;-83
2023/05/25 08:06:33;;;;;;;15.63;7.47;;;;;;;13.04;88.88;102000.44;4918878;29;20449;-81
2023/05/25 08:09:03;;;;;;;11.00;7.68;;;;;;;13.15;88.00;102000.44;4900725;29;20048;-81
2023/05/25 08:11:30;;;;;;;14.20;9.15;;;;;;;13.08;88.07;101999.56;4900799;29;20071;-81
2023/05/25 08:13:56;;;;;;;9.95;7.68;;;;;;;13.07;88.30;102001.34;4926721;29;20063;-84
2023/05/25 08:16:23;;;;;;;18.88;9.57;;;;;;;13.16;87.76;102003.06;4898456;29;20062;-81
2023/05/25 08:18:49;;;;;;;16.75;9.73;;;;;;;13.17;86.92;102006.59;4916038;29;20112;-80
2023/05/25 08:21:16;;;;;;;12.73;7.78;;;;;;;13.15;88.07;102003.94;4900947;29;20144;-82
2023/05/25 08:23:42;;;;;;;13.60;7.25;;;;;;;13.22;86.80;102000.47;4919469;29;20056;-88
2023/05/25 08:26:10;;;;;;;13.98;7.50;;;;;;;13.21;87.47;102009.22;4901423;29;20056;-82
2023/05/25 08:28:37;;;;;;;10.90;6.43;;;;;;;13.18;87.79;102006.59;4911222;29;20053;-80
2023/05/25 08:31:04;;;;;;;15.55;7.63;;;;;;;13.25;86.24;102004.84;4926259;29;20487;-82
2023/05/25 08:33:31;;;;;;;11.23;7.10;;;;;;;13.37;86.75;102002.25;4903919;29;20040;-81
2023/05/25 08:35:57;;;;;;;10.05;6.45;;;;;;;13.51;86.05;102015.44;4918743;29;20072;-79
2023/05/25 08:38:25;;;;;;;11.20;7.82;;;;;;;13.55;85.06;102013.69;4919727;29;20058;-80
2023/05/25 08:41:12;;;;;;;11.30;7.63;;;;;;;13.49;85.60;102013.69;4918590;29;20070;-83
2023/05/25 08:43:38;;;;;;;10.63;6.57;;;;;;;13.50;85.30;102012.81;4901513;29;20067;-80
2023/05/25 08:46:06;;;;;;;9.10;6.80;;;;;;;13.53;85.42;102021.59;4918630;29;20452;-80
2023/05/25 08:48:35;;;;;;;14.77;6.50;;;;;;;13.61;83.95;102011.06;4909859;29;20047;-82
2023/05/25 08:51:08;;;;;;;9.45;6.18;;;;;;;13.68;84.05;102012.81;4920571;29;20043;-82
2023/05/25 08:53:40;;;;;;;12.60;5.63;;;;;;;13.69;84.05;102016.34;4907481;29;20032;-82
2023/05/25 08:56:20;;;;;;;13.60;6.30;;;;;;;13.67;84.29;102016.31;4911547;29;20044;-81
2023/05/25 08:59:33;;;;;;;13.50;5.75;;;;;;;13.75;83.70;102018.06;4912496;29;20048;-81
2023/05/25 09:02:20;;;;;;;9.50;6.30;;;;;;;13.72;83.19;102018.94;4890048;29;20052;-79
2023/05/25 09:04:46;;;;;;;10.40;6.00;;;;;;;13.69;84.13;102025.09;4910185;29;20051;-86
2023/05/25 09:07:13;;;;;;;14.32;6.07;;;;;;;13.76;84.49;102025.97;4915213;29;20158;-83
2023/05/25 09:09:41;;;;;;;8.15;5.13;;;;;;;13.64;84.45;102023.34;4913187;29;20047;-80
2023/05/25 09:12:08;;;;;;;11.55;6.20;;;;;;;13.49;84.98;102017.22;4911654;29;20068;-84
2023/05/25 09:14:36;;;;;;;12.65;6.47;;;;;;;13.39;86.20;102025.97;4915213;29;20059;-81
2023/05/25 09:17:03;;;;;;;13.63;6.68;;;;;;;13.39;86.20;102023.34;4910725;29;20117;-84
2023/05/25 09:19:30;;;;;;;17.90;6.78;;;;;;;13.38;85.61;102024.19;4917777;23;20052;-80
2023/05/25 09:21:56;;;;;;;8.93;5.60;;;;;;;13.24;85.64;102018.88;4899491;29;20044;-90
2023/05/25 09:24:23;;;;;;;7.78;5.20;;;;;;;13.22;85.83;102021.50;4883316;29;20052;-80
2023/05/25 09:26:50;;;;;;;9.05;5.32;;;;;;;13.34;85.58;102032.94;4898040;29;20040;-80
2023/05/25 09:29:16;;;;;;;9.23;5.47;;;;;;;13.52;85.17;102030.34;4894111;29;20206;-83
2023/05/25 09:31:43;;;;;;;12.18;5.90;;;;;;;13.70;83.98;102028.59;4910479;29;20103;-81
2023/05/25 09:34:14;;;;;;;5.93;4.47;;;;;;;13.90;84.15;102026.84;4913938;29;20048;-81
2023/05/25 09:36:43;;;;;;;15.32;5.25;;;;;;;14.12;81.94;102031.19;4913334;29;20495;-80
2023/05/25 09:39:12;;;;;;;12.85;6.25;;;;;;;14.10;81.66;102028.56;4907701;29;20399;-82
2023/05/25 09:41:41;;;;;;;8.15;5.53;;;;;;;14.01;82.82;102029.44;4903688;29;20052;-80
2023/05/25 09:44:08;;;;;;;7.45;4.85;;;;;;;14.02;82.04;102032.97;4908156;29;20100;-80
2023/05/25 09:46:37;;;;;;;11.85;5.35;;;;;;;14.05;82.45;102028.59;4911660;29;20036;-79
2023/05/25 09:49:07;;;;;;;5.38;4.38;;;;;;;14.30;82.02;102033.81;4901244;29;20044;-79
2023/05/25 09:51:36;;;;;;;9.60;5.30;;;;;;;14.69;79.98;102033.69;4890444;29;20074;-82
2023/05/25 09:54:05;;;;;;;8.25;4.95;;;;;;;14.85;77.73;102034.53;4929451;29;20059;-79
2023/05/25 09:56:32;;;;;;;11.38;5.13;;;;;;;15.11;76.16;102036.13;4914316;29;20043;-81
2023/05/25 09:59:00;;;;;;;6.68;4.88;;;;;;;15.07;77.32;102042.31;4896731;29;20491;-82
2023/05/25 10:01:27;;;;;;;10.10;4.80;;;;;;;15.28;76.46;102043.94;4899197;29;20056;-82
2023/05/25 10:03:58;;;;;;;12.35;5.68;;;;;;;15.08;76.24;102042.31;4915983;29;20051;-79
2023/05/25 10:06:25;;;;;;;11.48;4.88;;;;;;;15.00;76.44;102050.25;4900655;29;20052;-80
2023/05/25 10:08:55;;;;;;;7.10;5.10;;;;;;;14.86;77.11;102046.81;4916627;29;20040;-80
2023/05/25 10:11:22;;;;;;;7.10;4.78;;;;;;;14.63;78.72;102057.44;4912823;29;20044;-80
2023/05/25 10:13:50;;;;;;;8.55;4.28;;;;;;;14.51;79.75;102053.06;4918152;29;20089;-79
2023/05/25 10:16:18;;;;;;;14.05;5.63;;;;;;;14.36;80.50;102057.47;4914301;29;20130;-82
2023/05/25 10:19:16;;;;;;;9.57;5.10;;;;;;;14.44;79.26;102060.09;4916245;29;20131;-78
2023/05/25 10:21:48;;;;;;;10.02;4.82;;;;;;;14.51;79.42;102060.97;4911869;29;20415;-80
2023/05/25 10:24:43;;;;;;;9.35;5.15;;;;;;;14.79;78.32;102055.66;4917396;29;20044;-80
2023/05/25 10:27:18;;;;;;;9.48;5.28;;;;;;;15.21;76.91;102049.28;4916336;29;20048;-78
2023/05/25 10:29:48;;;;;;;17.42;5.43;;;;;;;15.76;74.25;102044.50;4915928;29;20052;-79
2023/05/25 10:32:16;;;;;;;10.52;4.68;;;;;;;15.93;71.05;102051.41;4914451;29;20047;-80
2023/05/25 10:34:43;;;;;;;7.55;4.75;;;;;;;16.02;72.33;102046.94;4910422;29;20052;-80
2023/05/25 10:37:12;;;;;;;10.27;4.97;;;;;;;16.21;72.32;102047.63;4918530;29;20052;-84
2023/05/25 10:39:41;;;;;;;6.47;4.95;;;;;;;16.33;71.24;102053.69;4914653;29;20051;-80
2023/05/25 10:42:10;;;;;;;10.18;5.45;;;;;;;16.13;71.69;102048.59;4917272;29;20051;-87
2023/05/25 10:44:37;;;;;;;8.95;4.72;;;;;;;15.93;71.95;102054.06;4911794;29;20720;-90
2023/05/25 10:47:06;;;;;;;8.45;4.60;;;;;;;15.66;72.57;102053.38;4900505;29;20108;-81
2023/05/25 10:49:35;;;;;;;19.25;6.18;;;;;;;15.54;72.41;102049.06;4914913;29;20051;-80
2023/05/25 10:52:04;;;;;;;11.73;5.45;;;;;;;15.55;73.24;102051.69;4915564;29;20058;-80
2023/05/25 10:54:34;;;;;;;8.25;5.18;;;;;;;15.66;72.43;102051.59;4911884;29;20043;-81
2023/05/25 10:57:22;;;;;;;7.85;4.32;;;;;;;15.60;71.89;102048.16;4916663;29;20080;-80
2023/05/25 10:59:54;;;;;;;6.78;4.20;;;;;;;15.37;73.32;102055.34;4930777;29;20040;-82
2023/05/25 11:02:22;;;;;;;5.90;3.67;;;;;;;15.35;74.28;102053.59;4916254;29;20040;-82
2023/05/25 11:04:50;;;;;;;9.45;5.18;;;;;;;15.43;74.08;102058.81;4915596;29;20107;-80
2023/05/25 11:07:18;;;;;;;6.80;4.47;;;;;;;15.50;73.90;102063.16;4917255;29;20046;-80
2023/05/25 11:09:58;;;;;;;9.73;4.35;;;;;;;15.59;72.60;102049.03;4915319;29;20077;-80
2023/05/25 11:12:24;;;;;;;7.40;3.53;;;;;;;15.55;73.87;102053.44;4918403;29;20047;-81
2023/05/25 11:15:17;;;;;;;10.60;4.28;;;;;;;15.56;73.39;102052.56;4900407;29;20044;-81
2023/05/25 11:18:01;;;;;;;7.03;4.38;;;;;;;15.60;73.44;102050.78;4917150;29;20040;-79